Time;durP1;ratioP1;P1;durP2;ratioP2;P2;SDS_P1;SDS_P2;PMS_P1;PMS_P2;Temp;Humidity;BMP_temperature;BMP_pressure;BME280_temperature;BME280_humidity;BME280_pressure;Samples;Min_cycle;Max_cycle;Signal;HPM_P1;HPM_P2
2020/12/03 00:00:48;;;;;;;59.47;17.35;;;;;;;-2.04;85.52;96237.53;5005059;28;20045;-65
2020/12/03 00:03:37;;;;;;;50.05;18.77;;;;;;;-2.00;85.29;96233.19;4998380;28;20056;-65
2020/12/03 00:06:15;;;;;;;59.63;18.42;;;;;;;-2.57;86.29;96237.94;5017601;28;20041;-65
2020/12/03 00:08:45;;;;;;;59.35;16.95;;;;;;;-2.66;86.98;96235.09;5030421;28;20395;-66
2020/12/03 00:11:11;;;;;;;59.85;18.45;;;;;;;-2.72;87.58;96236.25;5020996;28;20037;-66
2020/12/03 00:13:36;;;;;;;64.03;18.80;;;;;;;-2.88;88.15;96233.84;5025768;28;20045;-65
2020/12/03 00:16:04;;;;;;;60.30;18.83;;;;;;;-2.85;88.58;96234.34;5023007;28;20069;-63
2020/12/03 00:18:33;;;;;;;59.25;18.27;;;;;;;-2.82;89.02;96231.88;5022477;28;20119;-65
2020/12/03 00:21:00;;;;;;;66.00;18.88;;;;;;;-2.86;88.86;96225.50;5023632;28;20061;-65
2020/12/03 00:23:25;;;;;;;63.55;18.08;;;;;;;-2.89;89.00;96229.56;5019424;28;20037;-63
2020/12/03 00:25:53;;;;;;;63.95;17.48;;;;;;;-2.93;88.91;96225.09;5023244;28;20091;-65
2020/12/03 00:28:19;;;;;;;58.35;19.60;;;;;;;-2.96;89.20;96221.09;5019916;28;20034;-64
2020/12/03 00:30:47;;;;;;;62.55;19.60;;;;;;;-2.97;89.25;96221.38;5024554;28;20049;-64
2020/12/03 00:33:17;;;;;;;61.78;17.77;;;;;;;-2.96;89.27;96226.44;5036653;28;20048;-65
2020/12/03 00:35:44;;;;;;;67.88;18.73;;;;;;;-2.89;89.17;96220.72;5025483;28;20041;-65
2020/12/03 00:38:09;;;;;;;67.57;19.85;;;;;;;-2.95;89.13;96209.28;5027517;28;20088;-64
2020/12/03 00:40:35;;;;;;;67.15;19.65;;;;;;;-2.98;89.11;96222.47;5036679;28;20092;-64
2020/12/03 00:43:00;;;;;;;70.22;20.88;;;;;;;-3.02;89.65;96214.22;5032030;28;20049;-64
2020/12/03 00:45:25;;;;;;;62.88;19.58;;;;;;;-3.04;89.49;96213.72;5038232;28;20071;-65
2020/12/03 00:47:51;;;;;;;56.70;18.65;;;;;;;-3.04;89.17;96210.22;5042312;28;20130;-66
2020/12/03 00:50:16;;;;;;;63.72;19.20;;;;;;;-3.02;89.24;96208.06;5037029;28;20613;-66
2020/12/03 00:52:42;;;;;;;74.88;20.55;;;;;;;-2.96;88.75;96212.25;5047275;28;20037;-67
2020/12/03 00:55:09;;;;;;;64.68;18.77;;;;;;;-3.00;88.50;96222.75;5037147;28;20374;-64
2020/12/03 00:57:34;;;;;;;57.80;17.88;;;;;;;-2.97;88.92;96218.69;5037376;28;20041;-65
2020/12/03 01:00:00;;;;;;;66.28;20.40;;;;;;;-2.94;88.78;96220.78;5044562;28;20043;-64
2020/12/03 01:02:25;;;;;;;62.83;19.65;;;;;;;-2.94;89.08;96221.59;5022485;28;20383;-63
2020/12/03 01:04:52;;;;;;;61.65;19.73;;;;;;;-2.86;88.93;96222.00;5031179;28;20518;-64
2020/12/03 01:07:17;;;;;;;65.15;21.08;;;;;;;-2.86;89.00;96227.38;5023168;28;20108;-65
2020/12/03 01:09:43;;;;;;;57.85;19.10;;;;;;;-2.85;88.50;96223.63;5029700;28;20056;-65
2020/12/03 01:12:11;;;;;;;55.67;17.70;;;;;;;-2.77;88.60;96231.00;5022923;28;20041;-64
2020/12/03 01:14:38;;;;;;;60.53;18.25;;;;;;;-2.85;88.44;96232.44;5035124;28;20063;-64
2020/12/03 01:17:07;;;;;;;67.22;19.13;;;;;;;-2.92;89.00;96240.06;5038496;28;20045;-64
2020/12/03 01:19:32;;;;;;;56.80;16.65;;;;;;;-2.97;89.35;96243.63;5025637;28;20572;-65
2020/12/03 01:21:57;;;;;;;70.55;20.02;;;;;;;-2.95;89.39;96238.75;5021522;28;20037;-67
2020/12/03 01:24:23;;;;;;;55.20;17.58;;;;;;;-2.71;89.23;96243.22;5031750;28;20382;-64
2020/12/03 01:26:48;;;;;;;60.33;18.58;;;;;;;-2.78;88.40;96240.13;5040247;28;20105;-66
2020/12/03 01:29:15;;;;;;;59.58;18.85;;;;;;;-2.82;88.84;96239.91;5025334;28;20513;-66
2020/12/03 01:31:40;;;;;;;62.17;18.58;;;;;;;-2.81;89.04;96244.19;5023095;28;20044;-65
2020/12/03 01:34:06;;;;;;;63.72;18.60;;;;;;;-2.86;89.11;96244.28;5014553;28;20489;-64
2020/12/03 01:36:31;;;;;;;63.30;19.30;;;;;;;-2.86;89.27;96241.59;5026624;28;20037;-64
2020/12/03 01:38:57;;;;;;;63.40;20.65;;;;;;;-2.84;89.20;96243.97;5037346;28;20041;-65
2020/12/03 01:41:24;;;;;;;62.30;19.00;;;;;;;-2.75;89.29;96240.34;5019158;28;20737;-64
2020/12/03 01:43:49;;;;;;;66.93;19.48;;;;;;;-2.79;88.95;96230.47;5022514;28;20132;-64
2020/12/03 01:46:15;;;;;;;62.03;18.85;;;;;;;-2.81;89.28;96236.16;5028011;28;20124;-63
2020/12/03 01:48:41;;;;;;;66.68;19.67;;;;;;;-2.77;89.40;96236.38;5042592;28;20045;-65
2020/12/03 01:51:18;;;;;;;69.20;20.50;;;;;;;-2.83;89.35;96226.78;5037993;28;20099;-64
2020/12/03 01:53:44;;;;;;;71.57;20.30;;;;;;;-2.83;89.63;96216.88;5027950;28;20098;-66
2020/12/03 01:56:51;;;;;;;66.57;19.92;;;;;;;-2.81;89.72;96224.63;5026094;28;20036;-65
2020/12/03 01:59:18;;;;;;;67.97;21.15;;;;;;;-2.80;89.25;96218.19;5037761;28;20506;-66
2020/12/03 02:01:44;;;;;;;63.40;20.60;;;;;;;-2.78;89.32;96219.47;5038784;28;20513;-66
2020/12/03 02:04:10;;;;;;;68.70;20.48;;;;;;;-2.78;88.62;96210.63;5020081;28;20037;-66
2020/12/03 02:06:38;;;;;;;59.42;21.15;;;;;;;-2.76;88.43;96203.88;5028764;28;20494;-66
2020/12/03 02:09:05;;;;;;;62.45;19.38;;;;;;;-2.72;88.55;96207.59;5036836;28;20041;-65
2020/12/03 02:11:30;;;;;;;63.10;18.83;;;;;;;-2.67;88.52;96205.91;5025635;28;20053;-65
2020/12/03 02:14:17;;;;;;;62.17;19.88;;;;;;;-2.66;88.29;96208.31;5024760;28;20045;-66
2020/12/03 02:16:43;;;;;;;62.30;20.52;;;;;;;-2.66;88.57;96204.84;4993285;28;20049;-65
2020/12/03 02:19:19;;;;;;;66.07;19.35;;;;;;;-2.61;88.36;96204.72;5004889;28;20390;-66
2020/12/03 02:21:51;;;;;;;53.55;19.05;;;;;;;-2.55;87.88;96188.25;5008726;28;20076;-66
2020/12/03 02:24:17;;;;;;;56.20;16.88;;;;;;;-2.54;87.28;96184.50;5016410;28;20058;-65
2020/12/03 02:26:51;;;;;;;57.97;18.65;;;;;;;-2.58;87.61;96180.81;5021479;28;20042;-66
2020/12/03 02:29:18;;;;;;;57.83;18.48;;;;;;;-2.53;87.42;96174.56;5029330;28;20041;-65
2020/12/03 02:31:44;;;;;;;53.67;17.48;;;;;;;-2.38;87.81;96168.91;5035333;28;20048;-64
2020/12/03 02:34:09;;;;;;;59.25;17.80;;;;;;;-2.44;86.80;96164.75;5022915;28;20045;-64
2020/12/03 02:36:35;;;;;;;58.10;18.70;;;;;;;-2.40;86.95;96165.75;5021028;28;20164;-64
2020/12/03 02:39:00;;;;;;;52.88;18.67;;;;;;;-2.28;86.89;96159.13;5018796;28;20144;-66
2020/12/03 02:41:25;;;;;;;58.05;18.25;;;;;;;-2.20;86.60;96150.34;5016231;28;20158;-63
2020/12/03 02:43:51;;;;;;;58.08;19.63;;;;;;;-1.86;85.30;96138.44;5024233;28;20562;-65
2020/12/03 02:46:16;;;;;;;44.53;16.40;;;;;;;-1.67;83.99;96141.78;5035622;28;20075;-65
2020/12/03 02:48:41;;;;;;;50.22;18.40;;;;;;;-1.77;84.03;96131.25;5026746;28;20049;-65
2020/12/03 02:51:07;;;;;;;51.67;17.30;;;;;;;-2.18;84.75;96137.44;5017303;28;20544;-64
2020/12/03 02:53:32;;;;;;;50.97;18.00;;;;;;;-2.28;84.99;96133.06;5020887;28;20050;-64
2020/12/03 02:55:57;;;;;;;55.40;19.23;;;;;;;-2.35;85.52;96132.69;5019222;28;20072;-65
2020/12/03 02:58:23;;;;;;;59.63;18.92;;;;;;;-2.42;86.04;96133.06;5016477;28;20071;-64
2020/12/03 03:00:48;;;;;;;53.38;18.48;;;;;;;-2.38;86.94;96128.69;5020507;28;20486;-64
2020/12/03 03:03:13;;;;;;;52.83;17.75;;;;;;;-2.35;86.20;96127.31;5015552;28;20048;-64
2020/12/03 03:05:39;;;;;;;54.15;19.77;;;;;;;-2.31;85.54;96126.41;5020667;28;20103;-63
2020/12/03 03:08:04;;;;;;;54.40;17.80;;;;;;;-2.30;86.02;96121.84;5022613;28;20041;-65
2020/12/03 03:10:30;;;;;;;59.28;19.05;;;;;;;-2.31;85.90;96118.34;5020640;28;20131;-65
2020/12/03 03:12:55;;;;;;;47.67;17.52;;;;;;;-2.23;85.78;96116.06;5013831;28;20069;-65
2020/12/03 03:15:21;;;;;;;51.90;18.58;;;;;;;-2.16;85.72;96113.78;5022410;28;20041;-67
2020/12/03 03:17:46;;;;;;;59.20;17.25;;;;;;;-2.36;85.97;96113.13;5013734;28;20057;-66
2020/12/03 03:20:12;;;;;;;57.75;17.10;;;;;;;-2.39;86.41;96124.44;5013412;28;20099;-66
2020/12/03 03:22:40;;;;;;;51.30;17.70;;;;;;;-2.33;86.36;96109.03;5020505;28;20064;-65
2020/12/03 03:25:06;;;;;;;54.30;19.50;;;;;;;-2.27;86.37;96105.13;5027522;28;20037;-64
2020/12/03 03:27:32;;;;;;;49.30;17.75;;;;;;;-2.24;86.40;96109.91;5027325;28;20044;-66
2020/12/03 03:29:57;;;;;;;61.55;18.88;;;;;;;-2.19;86.03;96109.03;5027061;28;20064;-67
2020/12/03 03:32:23;;;;;;;47.65;17.65;;;;;;;-2.13;86.05;96110.50;5015770;28;20049;-65
2020/12/03 03:34:48;;;;;;;56.97;18.77;;;;;;;-2.07;86.07;96103.97;5029811;28;20600;-64
2020/12/03 03:37:13;;;;;;;50.33;17.40;;;;;;;-2.07;85.60;96098.59;5023127;28;20044;-65
2020/12/03 03:39:39;;;;;;;52.28;17.85;;;;;;;-2.09;85.98;96094.59;5031851;28;20510;-66
2020/12/03 03:42:04;;;;;;;51.83;17.85;;;;;;;-2.12;86.25;96096.00;5027141;28;20041;-65
2020/12/03 03:44:30;;;;;;;54.97;18.95;;;;;;;-2.21;86.89;96093.22;5021773;28;20129;-65
2020/12/03 03:46:55;;;;;;;51.67;16.58;;;;;;;-2.18;86.88;96081.09;5025669;28;20073;-65
2020/12/03 03:49:20;;;;;;;59.85;18.77;;;;;;;-2.11;87.16;96089.53;5019574;28;20075;-64
2020/12/03 03:51:46;;;;;;;52.85;18.55;;;;;;;-1.97;86.87;96097.59;5039120;28;20041;-65
2020/12/03 03:54:11;;;;;;;60.08;19.08;;;;;;;-1.92;86.29;96100.94;5036847;28;20040;-66
2020/12/03 03:56:37;;;;;;;55.22;18.25;;;;;;;-2.01;86.81;96094.69;5034334;28;20047;-63
2020/12/03 03:59:03;;;;;;;55.03;17.65;;;;;;;-1.90;86.81;96092.59;5022163;28;20483;-64
2020/12/03 04:01:29;;;;;;;49.92;18.25;;;;;;;-1.78;86.85;96095.56;5018669;28;20045;-66
2020/12/03 04:03:54;;;;;;;50.70;17.13;;;;;;;-1.78;86.49;96092.09;5020297;28;20048;-66
2020/12/03 04:06:20;;;;;;;48.05;17.55;;;;;;;-1.86;86.99;96090.91;5017159;28;20071;-65
2020/12/03 04:08:45;;;;;;;49.10;17.73;;;;;;;-1.95;87.89;96093.50;5030139;28;20040;-65
2020/12/03 04:11:10;;;;;;;52.75;17.65;;;;;;;-2.01;87.87;96092.03;5035069;28;20135;-65
2020/12/03 04:13:36;;;;;;;55.03;18.65;;;;;;;-1.96;88.07;96088.44;5036754;28;20094;-66
2020/12/03 04:16:02;;;;;;;50.17;17.83;;;;;;;-1.97;88.18;96079.56;5029552;28;20482;-66
2020/12/03 04:18:27;;;;;;;52.58;18.50;;;;;;;-1.85;88.05;96089.03;5028148;28;20049;-65
2020/12/03 04:20:58;;;;;;;52.10;16.92;;;;;;;-1.80;88.02;96078.16;5020944;28;20034;-64
2020/12/03 04:23:23;;;;;;;49.38;18.35;;;;;;;-1.86;87.63;96074.78;4997643;28;20052;-65
2020/12/03 04:25:49;;;;;;;59.17;17.55;;;;;;;-1.75;87.60;96078.03;5002746;28;20054;-66
2020/12/03 04:28:15;;;;;;;52.55;17.17;;;;;;;-1.64;87.29;96076.75;5007149;28;20378;-66
2020/12/03 04:30:41;;;;;;;50.47;17.98;;;;;;;-1.51;87.06;96075.09;5034309;28;20032;-67
2020/12/03 04:33:06;;;;;;;54.35;18.08;;;;;;;-1.46;86.26;96074.19;5026773;28;20360;-66
2020/12/03 04:35:32;;;;;;;54.72;18.15;;;;;;;-1.51;85.89;96064.38;5036043;28;20087;-65
2020/12/03 04:37:57;;;;;;;56.58;20.40;;;;;;;-1.68;85.55;96064.22;5024723;28;20084;-65
2020/12/03 04:40:30;;;;;;;47.88;16.95;;;;;;;-1.74;85.59;96068.91;4991174;28;20060;-66
2020/12/03 04:43:05;;;;;;;49.00;17.02;;;;;;;-1.74;85.86;96068.91;5031066;28;20128;-66
2020/12/03 04:45:55;;;;;;;57.63;19.05;;;;;;;-1.80;85.72;96062.84;5030481;28;20041;-66
2020/12/03 04:49:23;;;;;;;47.55;16.40;;;;;;;-1.69;85.86;96057.25;5033314;28;20040;-66
2020/12/03 04:52:10;;;;;;;53.60;17.63;;;;;;;-1.70;86.06;96047.63;5024116;28;20048;-65
2020/12/03 04:54:46;;;;;;;50.72;16.60;;;;;;;-1.62;86.11;96052.25;5016096;28;20045;-68
2020/12/03 04:57:35;;;;;;;47.25;16.02;;;;;;;-1.49;86.26;96045.25;5017919;28;20500;-65
2020/12/03 05:00:23;;;;;;;50.33;17.55;;;;;;;-1.40;86.24;96041.53;5047376;28;20033;-65
2020/12/03 05:03:06;;;;;;;48.50;18.02;;;;;;;-1.35;86.14;96041.41;5006117;28;20518;-66
2020/12/03 05:05:49;;;;;;;54.47;17.73;;;;;;;-1.50;86.44;96032.91;5022263;28;20061;-66
2020/12/03 05:08:41;;;;;;;52.15;16.98;;;;;;;-1.56;87.21;96026.88;5026769;28;20037;-64
2020/12/03 05:11:20;;;;;;;50.97;17.17;;;;;;;-1.38;87.17;96030.47;5021637;28;20080;-64
2020/12/03 05:13:49;;;;;;;53.80;16.75;;;;;;;-1.36;86.94;96021.00;5031043;28;20044;-66
2020/12/03 05:16:34;;;;;;;51.83;17.60;;;;;;;-1.48;87.02;96030.72;5027761;28;20422;-64
2020/12/03 05:19:12;;;;;;;51.53;17.05;;;;;;;-1.70;88.08;96021.56;5023192;28;20135;-64
2020/12/03 05:21:38;;;;;;;43.20;15.68;;;;;;;-1.74;88.40;96021.38;5005527;28;20103;-64
2020/12/03 05:24:03;;;;;;;51.13;17.40;;;;;;;-1.66;88.22;96027.09;5018962;28;20049;-62
2020/12/03 05:26:35;;;;;;;52.60;17.38;;;;;;;-1.65;88.59;96018.75;5031590;28;20049;-64
2020/12/03 05:29:03;;;;;;;56.72;18.45;;;;;;;-1.51;88.53;96025.94;5042142;28;20049;-64
2020/12/03 05:31:32;;;;;;;52.10;17.85;;;;;;;-1.46;88.51;96017.78;5028807;28;20053;-64
2020/12/03 05:34:14;;;;;;;55.05;16.50;;;;;;;-1.65;88.43;96009.91;5028797;28;20041;-65
2020/12/03 05:36:59;;;;;;;54.50;17.33;;;;;;;-1.63;88.48;96016.56;5035746;28;20128;-65
2020/12/03 05:39:42;;;;;;;52.22;17.95;;;;;;;-1.75;88.92;96014.44;5037237;28;20036;-67
2020/12/03 05:42:12;;;;;;;46.33;15.75;;;;;;;-1.85;89.55;96013.88;5030475;28;20072;-64
2020/12/03 05:44:43;;;;;;;57.88;18.98;;;;;;;-1.96;90.05;96010.63;5032727;28;20041;-65
2020/12/03 05:47:32;;;;;;;53.05;18.73;;;;;;;-1.83;90.12;96020.50;5029191;28;20045;-64
2020/12/03 05:50:07;;;;;;;55.80;17.48;;;;;;;-1.74;90.12;96007.16;5025462;28;20082;-64
2020/12/03 05:52:34;;;;;;;46.03;16.48;;;;;;;-1.89;89.68;96008.31;5028952;28;20507;-66
2020/12/03 05:55:03;;;;;;;53.40;17.98;;;;;;;-2.10;91.59;95997.22;5019766;28;20045;-65
2020/12/03 05:57:31;;;;;;;54.47;17.38;;;;;;;-2.17;92.01;96013.72;5021477;28;20111;-65
2020/12/03 06:00:12;;;;;;;60.25;20.75;;;;;;;-2.26;92.34;96009.38;5021670;28;20049;-66
2020/12/03 06:03:07;;;;;;;65.20;20.27;;;;;;;-2.26;92.24;96007.50;5017978;28;20195;-65
2020/12/03 06:06:17;;;;;;;53.45;18.80;;;;;;;-2.40;92.26;96006.72;5021333;28;20060;-65
2020/12/03 06:09:11;;;;;;;57.88;19.63;;;;;;;-2.43;92.63;96010.81;5036121;28;20454;-65
2020/12/03 06:11:58;;;;;;;57.47;18.65;;;;;;;-2.31;93.27;96010.28;5036864;28;20569;-64
2020/12/03 06:14:44;;;;;;;61.97;19.00;;;;;;;-2.27;93.19;96005.09;5038766;28;20103;-65
2020/12/03 06:17:09;;;;;;;69.15;19.55;;;;;;;-2.26;92.95;95998.66;5004579;28;20045;-64
2020/12/03 06:20:13;;;;;;;62.83;19.00;;;;;;;-2.22;92.78;95996.94;5009410;28;20046;-65
2020/12/03 06:23:08;;;;;;;56.42;17.50;;;;;;;-2.15;92.63;95994.66;4995172;28;20444;-65
2020/12/03 06:26:06;;;;;;;59.47;18.73;;;;;;;-2.05;92.70;95991.75;5018213;28;20048;-66
2020/12/03 06:28:41;;;;;;;58.63;18.02;;;;;;;-1.86;92.21;95994.25;4995173;28;20069;-65
2020/12/03 06:31:21;;;;;;;59.60;18.75;;;;;;;-1.69;91.12;95990.94;4995564;28;20038;-65
2020/12/03 06:34:34;;;;;;;64.47;20.17;;;;;;;-1.61;92.58;96005.50;5000925;28;20124;-66
2020/12/03 06:37:04;;;;;;;60.25;18.90;;;;;;;-1.65;92.49;95999.94;5013998;28;20141;-66
2020/12/03 06:40:05;;;;;;;62.95;17.98;;;;;;;-1.67;91.81;95986.03;5010713;28;20045;-66
2020/12/03 06:42:46;;;;;;;55.63;18.65;;;;;;;-2.07;91.32;95988.59;5012828;28;20033;-65
2020/12/03 06:45:37;;;;;;;54.45;18.13;;;;;;;-2.14;91.56;96002.41;5014176;28;20045;-66
2020/12/03 06:48:30;;;;;;;61.40;18.75;;;;;;;-2.24;92.44;95994.56;5018234;28;20043;-65
2020/12/03 06:51:29;;;;;;;56.40;18.63;;;;;;;-2.25;92.83;95990.31;5016487;28;20394;-66
2020/12/03 06:54:27;;;;;;;59.80;19.48;;;;;;;-2.25;93.31;95994.88;5000190;28;20038;-65
2020/12/03 06:57:08;;;;;;;53.80;18.95;;;;;;;-2.13;93.50;95997.81;5014367;28;20657;-66
2020/12/03 06:59:49;;;;;;;52.20;19.38;;;;;;;-1.95;93.17;95996.88;4994660;28;20073;-66
2020/12/03 07:02:51;;;;;;;59.67;19.70;;;;;;;-1.80;92.72;95995.75;4996217;28;20041;-66
2020/12/03 07:05:40;;;;;;;63.08;19.85;;;;;;;-1.94;91.86;96000.38;4995195;28;20049;-66
2020/12/03 07:08:17;;;;;;;57.40;19.48;;;;;;;-1.86;91.90;95988.09;5003773;28;20117;-65
2020/12/03 07:11:10;;;;;;;57.45;19.35;;;;;;;-1.77;91.98;95988.97;5012216;28;20049;-65
2020/12/03 07:13:57;;;;;;;59.97;19.08;;;;;;;-1.90;91.44;95992.50;5027643;28;20080;-63
2020/12/03 07:16:41;;;;;;;56.80;19.02;;;;;;;-2.09;92.21;95985.38;5025622;28;20122;-65
2020/12/03 07:19:27;;;;;;;63.17;20.92;;;;;;;-2.01;93.17;95992.72;5016447;28;20046;-64
2020/12/03 07:22:37;;;;;;;60.88;19.27;;;;;;;-1.88;92.56;95998.34;5022018;28;20046;-66
2020/12/03 07:25:05;;;;;;;64.18;19.27;;;;;;;-1.78;91.82;95995.44;4996595;28;20500;-64
2020/12/03 07:28:00;;;;;;;57.70;19.35;;;;;;;-1.67;92.07;95986.03;5005211;28;20048;-66
2020/12/03 07:30:38;;;;;;;59.45;19.52;;;;;;;-1.61;91.58;95990.19;5005069;28;20049;-65
2020/12/03 07:33:38;;;;;;;53.85;18.65;;;;;;;-1.60;91.00;95988.31;5023614;28;20045;-64
2020/12/03 07:36:13;;;;;;;65.38;19.98;;;;;;;-1.89;90.79;95986.03;5035886;28;20048;-64
2020/12/03 07:38:52;;;;;;;69.80;27.65;;;;;;;-2.05;91.94;95993.63;5036153;28;20498;-65
2020/12/03 07:41:20;;;;;;;61.92;20.05;;;;;;;-1.99;92.31;95992.44;5024531;28;20422;-66
2020/12/03 07:43:46;;;;;;;62.45;20.75;;;;;;;-2.05;91.80;95993.63;5037497;28;20044;-65
2020/12/03 07:46:24;;;;;;;59.83;20.08;;;;;;;-1.95;92.11;95990.72;5024876;28;20128;-65
2020/12/03 07:48:49;;;;;;;71.43;23.58;;;;;;;-2.02;92.19;95988.44;5031337;28;20077;-65
2020/12/03 07:51:17;;;;;;;70.68;26.02;;;;;;;-2.07;92.17;95988.59;5020470;28;20088;-64
2020/12/03 07:53:43;;;;;;;59.28;20.13;;;;;;;-2.08;92.63;95983.50;5029947;28;20041;-64
2020/12/03 07:56:36;;;;;;;69.53;21.50;;;;;;;-2.11;93.12;95984.88;5027472;28;20154;-64
2020/12/03 07:59:26;;;;;;;68.93;20.95;;;;;;;-2.10;93.24;95975.75;5037394;28;20096;-63
2020/12/03 08:01:56;;;;;;;70.63;21.25;;;;;;;-2.09;93.19;95976.53;5020859;28;20075;-66
2020/12/03 08:04:29;;;;;;;55.28;20.10;;;;;;;-2.01;92.64;95982.00;5035190;28;20295;-65
2020/12/03 08:07:03;;;;;;;70.22;22.23;;;;;;;-1.89;92.91;95983.34;5030223;28;20124;-65
2020/12/03 08:09:43;;;;;;;73.95;23.98;;;;;;;-1.83;92.37;95976.78;5011977;28;20064;-66
2020/12/03 08:12:21;;;;;;;73.35;22.65;;;;;;;-1.78;91.93;95982.81;5027579;28;20044;-66
2020/12/03 08:14:49;;;;;;;78.63;28.65;;;;;;;-1.70;91.71;95975.91;5023606;28;20115;-64
2020/12/03 08:17:15;;;;;;;66.25;23.42;;;;;;;-1.66;91.30;95982.25;5027371;28;20049;-64
2020/12/03 08:19:41;;;;;;;69.03;19.95;;;;;;;-1.66;91.25;95982.25;5022841;28;20059;-66
2020/12/03 08:22:24;;;;;;;67.65;24.13;;;;;;;-1.60;91.26;95972.97;5019047;28;20486;-64
2020/12/03 08:25:00;;;;;;;60.13;22.33;;;;;;;-1.54;91.47;95971.75;5026857;28;20041;-65
2020/12/03 08:27:25;;;;;;;71.40;24.45;;;;;;;-1.50;91.30;95966.56;5018212;28;20045;-64
2020/12/03 08:29:50;;;;;;;59.85;23.42;;;;;;;-1.29;91.06;95966.06;5028052;28;20033;-67
2020/12/03 08:32:16;;;;;;;51.07;19.57;;;;;;;-1.21;90.04;95959.91;5010873;28;20041;-66
2020/12/03 08:34:43;;;;;;;55.83;19.58;;;;;;;-1.20;89.77;95950.78;5008465;28;20304;-65
2020/12/03 08:37:17;;;;;;;61.83;26.25;;;;;;;-1.29;90.16;95952.63;5002604;28;20462;-65
2020/12/03 08:39:45;;;;;;;55.60;18.60;;;;;;;-1.30;90.49;95945.66;5005169;28;20080;-65
2020/12/03 08:42:13;;;;;;;53.65;19.33;;;;;;;-1.22;90.75;95950.28;4998429;28;20487;-64
2020/12/03 08:44:41;;;;;;;65.32;21.77;;;;;;;-1.15;90.37;95942.59;5004258;28;20038;-66
2020/12/03 08:47:21;;;;;;;59.75;21.33;;;;;;;-1.02;90.54;95932.84;4998605;28;20099;-64
2020/12/03 08:49:46;;;;;;;53.58;20.15;;;;;;;-0.88;89.59;95938.88;5005415;28;20084;-66
2020/12/03 08:52:17;;;;;;;54.95;20.10;;;;;;;-0.90;89.94;95930.34;4995871;28;20050;-66
2020/12/03 08:54:42;;;;;;;58.92;19.73;;;;;;;-0.66;89.58;95935.31;5003170;28;20129;-65
2020/12/03 08:57:11;;;;;;;50.45;18.67;;;;;;;-0.26;88.33;95932.53;4995843;28;20129;-65
2020/12/03 08:59:45;;;;;;;57.28;21.80;;;;;;;-0.02;86.12;95925.88;4997484;28;20045;-65
2020/12/03 09:02:16;;;;;;;48.53;19.63;;;;;;;0.20;85.00;95919.56;5004055;28;20110;-66
2020/12/03 09:04:49;;;;;;;68.50;22.88;;;;;;;0.51;83.43;95922.03;5042770;28;20049;-64
2020/12/03 09:07:17;;;;;;;42.25;17.35;;;;;;;0.92;81.91;95915.25;5007268;28;20088;-65
2020/12/03 09:09:45;;;;;;;37.60;16.00;;;;;;;1.14;79.42;95910.72;5007832;28;20038;-67
2020/12/03 09:12:13;;;;;;;29.05;13.07;;;;;;;1.53;76.70;95893.34;5012778;28;20564;-66
2020/12/03 09:14:41;;;;;;;39.83;16.33;;;;;;;1.72;76.03;95892.88;5022492;28;20044;-66
2020/12/03 09:17:14;;;;;;;34.17;16.05;;;;;;;1.80;75.53;95885.84;4998332;28;20042;-65
2020/12/03 09:19:40;;;;;;;30.08;13.38;;;;;;;2.07;74.07;95881.00;5011066;28;20056;-66
2020/12/03 09:22:07;;;;;;;32.42;14.35;;;;;;;2.16;73.54;95870.13;5001744;28;20042;-64
2020/12/03 09:24:34;;;;;;;26.95;12.75;;;;;;;2.10;71.93;95864.16;5001885;28;20053;-64
2020/12/03 09:27:03;;;;;;;25.50;11.15;;;;;;;2.21;72.60;95856.41;5015268;28;20026;-64
2020/12/03 09:29:28;;;;;;;27.70;13.17;;;;;;;2.80;69.17;95849.91;5037310;28;20045;-62
2020/12/03 09:32:02;;;;;;;25.42;12.43;;;;;;;2.82;69.17;95845.72;5023182;28;20042;-66
2020/12/03 09:34:31;;;;;;;23.60;11.93;;;;;;;2.62;68.70;95836.56;5018713;28;20053;-63
2020/12/03 09:36:57;;;;;;;25.57;11.70;;;;;;;2.70;68.27;95828.69;5022426;28;20049;-63
2020/12/03 09:39:25;;;;;;;23.80;11.68;;;;;;;2.53;68.41;95818.88;5014226;28;20818;-66
2020/12/03 09:41:51;;;;;;;28.27;11.07;;;;;;;2.52;66.85;95818.09;5021203;28;20038;-63
2020/12/03 09:44:19;;;;;;;25.85;13.13;;;;;;;2.48;68.19;95811.78;5013680;28;20510;-64
2020/12/03 09:46:48;;;;;;;20.17;10.40;;;;;;;2.53;67.85;95805.38;5021487;28;20029;-65
2020/12/03 09:49:15;;;;;;;17.70;8.98;;;;;;;2.95;65.77;95797.03;5016169;28;20059;-64
2020/12/03 09:51:42;;;;;;;23.05;10.52;;;;;;;2.85;65.81;95793.66;5021802;28;20083;-65
2020/12/03 09:54:07;;;;;;;21.20;10.38;;;;;;;3.19;63.97;95785.41;5017575;28;20045;-66
2020/12/03 09:56:36;;;;;;;19.15;8.93;;;;;;;3.04;63.68;95781.47;5022754;28;20044;-66
2020/12/03 09:59:03;;;;;;;22.37;9.67;;;;;;;3.25;62.90;95776.69;5021078;28;20386;-65
2020/12/03 10:02:07;;;;;;;20.23;8.68;;;;;;;3.25;62.35;95765.09;5018571;28;20042;-64
2020/12/03 10:04:35;;;;;;;18.13;9.00;;;;;;;3.38;63.49;95747.69;5018815;28;20037;-66
2020/12/03 10:07:22;;;;;;;18.52;8.55;;;;;;;3.37;62.16;95753.47;5021938;28;20030;-65
2020/12/03 10:10:21;;;;;;;18.42;8.60;;;;;;;3.19;62.79;95745.59;5018863;28;20827;-65
2020/12/03 10:13:07;;;;;;;19.60;8.68;;;;;;;3.08;63.15;95741.81;5021526;28;20041;-65
2020/12/03 10:16:14;;;;;;;17.58;9.13;;;;;;;3.25;63.13;95736.09;5040542;28;20041;-65
2020/12/03 10:18:48;;;;;;;17.17;8.48;;;;;;;3.32;63.28;95732.84;5034489;28;20723;-65
2020/12/03 10:21:19;;;;;;;19.10;8.00;;;;;;;3.11;65.01;95734.91;5007796;28;20495;-65
2020/12/03 10:24:12;;;;;;;19.38;10.02;;;;;;;2.71;67.33;95732.94;5021645;28;20106;-64
2020/12/03 10:27:02;;;;;;;23.83;10.63;;;;;;;2.72;68.08;95719.09;5022301;28;20041;-65
2020/12/03 10:29:30;;;;;;;18.13;8.98;;;;;;;2.71;66.91;95719.44;5017274;28;20103;-64
2020/12/03 10:31:58;;;;;;;16.90;8.43;;;;;;;2.57;64.55;95709.72;5017952;28;20045;-64
2020/12/03 10:34:25;;;;;;;9.90;5.75;;;;;;;2.67;63.44;95713.91;4997039;28;20557;-65
2020/12/03 10:36:56;;;;;;;14.88;7.90;;;;;;;2.50;64.93;95698.69;5000780;28;20066;-65
2020/12/03 10:39:29;;;;;;;16.83;7.93;;;;;;;2.32;65.06;95694.66;4987086;28;20071;-66
2020/12/03 10:41:55;;;;;;;20.15;8.93;;;;;;;2.37;65.65;95686.31;5005644;28;20471;-65
2020/12/03 10:44:26;;;;;;;21.13;9.88;;;;;;;2.42;65.84;95686.09;4995305;28;20097;-65
2020/12/03 10:46:57;;;;;;;17.65;9.43;;;;;;;2.61;66.33;95680.91;4998973;28;20103;-65
2020/12/03 10:49:25;;;;;;;18.40;9.27;;;;;;;2.46;64.53;95678.88;4996980;28;20112;-65
2020/12/03 10:51:53;;;;;;;17.33;8.80;;;;;;;2.47;64.96;95669.66;5001246;28;20034;-64
2020/12/03 10:54:19;;;;;;;17.52;8.43;;;;;;;2.78;65.31;95666.34;5006732;28;20073;-66
2020/12/03 10:56:50;;;;;;;19.60;9.88;;;;;;;2.78;64.88;95665.56;5016211;28;20137;-66
2020/12/03 10:59:31;;;;;;;17.73;8.18;;;;;;;2.78;64.89;95665.56;5000154;28;20042;-64
2020/12/03 11:01:57;;;;;;;17.23;9.05;;;;;;;2.65;64.45;95660.19;5002398;28;20049;-66
2020/12/03 11:04:24;;;;;;;16.00;8.32;;;;;;;2.93;63.34;95664.84;4996396;28;20042;-66
2020/12/03 11:06:50;;;;;;;19.05;9.75;;;;;;;2.87;65.14;95658.09;4998192;28;20121;-66
2020/12/03 11:09:21;;;;;;;24.60;9.77;;;;;;;2.88;64.43;95651.53;4994037;28;20137;-66
2020/12/03 11:11:48;;;;;;;21.98;10.30;;;;;;;2.91;64.54;95647.38;5000941;28;20512;-65
2020/12/03 11:14:15;;;;;;;20.83;9.13;;;;;;;2.85;65.39;95646.84;4998155;28;20048;-64
2020/12/03 11:16:48;;;;;;;19.13;9.52;;;;;;;3.14;64.23;95639.53;5001674;28;20049;-64
2020/12/03 11:19:16;;;;;;;20.63;10.23;;;;;;;3.47;63.35;95635.78;4998069;28;20053;-66
2020/12/03 11:22:19;;;;;;;28.42;11.63;;;;;;;3.68;62.79;95627.44;5004795;28;20049;-66
2020/12/03 11:25:06;;;;;;;21.45;9.93;;;;;;;3.84;61.21;95633.66;5011562;28;20038;-66
2020/12/03 11:27:32;;;;;;;26.40;10.73;;;;;;;3.83;61.89;95635.56;5022911;28;20068;-61
2020/12/03 11:30:12;;;;;;;30.73;11.60;;;;;;;3.91;62.17;95631.13;5032594;28;20072;-65
2020/12/03 11:32:45;;;;;;;24.13;10.75;;;;;;;3.87;61.67;95638.38;5012898;28;20038;-65
2020/12/03 11:35:25;;;;;;;27.05;10.98;;;;;;;4.15;62.63;95618.50;5001163;28;20066;-64
2020/12/03 11:37:53;;;;;;;29.73;11.20;;;;;;;4.12;61.13;95624.63;5005715;28;20372;-63
2020/12/03 11:40:34;;;;;;;23.20;9.02;;;;;;;4.06;61.70;95615.97;4997296;28;20686;-64
2020/12/03 11:43:18;;;;;;;21.25;9.80;;;;;;;3.97;61.06;95624.28;5002960;28;20113;-65
2020/12/03 11:48:44;;;;;;;23.02;9.98;;;;;;;4.31;61.17;95613.09;5039176;28;20522;-64